createdAt,value
2017-03-09T00:00:37.849Z,60.74
2017-03-09T00:01:40.938Z,60.66
2017-03-09T00:02:54.495Z,60.65
2017-03-09T00:03:39.525Z,60.64
2017-03-09T00:05:00.567Z,60.61
2017-03-09T00:05:44.018Z,60.59
2017-03-09T00:06:49.887Z,60.56
2017-03-09T00:07:43.869Z,60.57
2017-03-09T00:08:57.594Z,60.58
2017-03-09T00:09:39.426Z,60.53
2017-03-09T00:10:55.889Z,60.47
2017-03-09T00:11:40.161Z,60.45
2017-03-09T00:12:50.514Z,60.52
2017-03-09T00:13:49.940Z,60.44
2017-03-09T00:15:01.140Z,60.43
2017-03-09T00:15:49.223Z,60.37
2017-03-09T00:16:44.484Z,60.41
2017-03-09T00:17:53.171Z,60.38
2017-03-09T00:18:33.710Z,60.41
2017-03-09T00:19:44.754Z,60.37
2017-03-09T00:20:45.977Z,60.34
2017-03-09T00:21:48.980Z,60.35
2017-03-09T00:22:44.418Z,60.34
2017-03-09T00:23:50.241Z,60.32
2017-03-09T00:24:54.265Z,60.26
2017-03-09T00:25:54.849Z,60.26
2017-03-09T00:26:50.380Z,60.25
2017-03-09T00:27:49.702Z,60.29
2017-03-09T00:28:51.126Z,60.28
2017-03-09T00:29:55.182Z,60.29
2017-03-09T00:30:43.687Z,60.25
2017-03-09T00:31:43.816Z,60.27
2017-03-09T00:32:39.668Z,60.23
2017-03-09T00:33:39.132Z,60.26
2017-03-09T00:34:43.316Z,60.26
2017-03-09T00:35:43.538Z,60.25
2017-03-09T00:37:01.087Z,60.24
2017-03-09T00:37:43.830Z,60.20
2017-03-09T00:38:50.419Z,60.21
2017-03-09T00:39:43.546Z,60.20
2017-03-09T00:40:49.352Z,60.21
2017-03-09T00:41:54.407Z,60.18
2017-03-09T00:42:49.568Z,60.15
2017-03-09T00:43:38.827Z,60.16
2017-03-09T00:44:38.963Z,60.14
2017-03-09T00:45:44.445Z,60.16
2017-03-09T00:46:59.675Z,60.16
2017-03-09T00:47:53.536Z,60.16
2017-03-09T00:48:40.059Z,60.15
2017-03-09T00:49:37.506Z,60.16
2017-03-09T00:51:39.461Z,60.12
2017-03-09T00:52:39.625Z,60.11
2017-03-09T00:53:48.865Z,60.12
2017-03-09T00:54:49.594Z,60.13
2017-03-09T00:55:54.964Z,60.11
2017-03-09T00:56:39.587Z,60.09
2017-03-09T00:57:54.893Z,60.12
2017-03-09T00:58:39.165Z,60.10
2017-03-09T00:59:54.831Z,60.07
2017-03-09T01:01:30.696Z,60.06
2017-03-09T01:02:08.193Z,60.12
2017-03-09T01:02:57.158Z,60.07
2017-03-09T01:03:43.923Z,60.07
2017-03-09T01:04:40.226Z,60.08
2017-03-09T01:05:50.122Z,60.07
2017-03-09T01:06:44.512Z,60.09
2017-03-09T01:07:45.535Z,60.09
2017-03-09T01:08:35.611Z,60.07
2017-03-09T01:09:54.327Z,60.07
2017-03-09T01:10:54.642Z,60.04
2017-03-09T01:12:52.345Z,60.00
2017-03-09T01:14:00.619Z,60.03
2017-03-09T01:14:43.054Z,60.02
2017-03-09T01:16:04.353Z,60.04
2017-03-09T01:16:37.203Z,60.02
2017-03-09T01:17:50.015Z,60.03
2017-03-09T01:18:43.780Z,60.06
2017-03-09T01:19:55.814Z,60.00
2017-03-09T01:20:41.429Z,59.99
2017-03-09T01:21:39.937Z,60.00
2017-03-09T01:22:50.082Z,59.99
2017-03-09T01:23:44.724Z,59.98
2017-03-09T01:24:39.227Z,59.98
2017-03-09T01:25:45.449Z,59.99
2017-03-09T01:27:03.782Z,60.01
2017-03-09T01:27:52.503Z,60.00
2017-03-09T01:28:45.865Z,60.00
2017-03-09T01:29:45.177Z,60.00
2017-03-09T01:30:45.167Z,59.97
2017-03-09T01:31:44.896Z,59.98
2017-03-09T01:32:54.099Z,59.99
2017-03-09T01:33:38.440Z,59.99
2017-03-09T01:35:01.194Z,59.99
2017-03-09T01:35:45.537Z,60.00
2017-03-09T01:36:38.203Z,59.99
2017-03-09T01:37:53.690Z,59.97
2017-03-09T01:38:43.946Z,59.96
2017-03-09T01:39:39.085Z,59.98
2017-03-09T01:40:49.571Z,59.99
2017-03-09T01:41:44.853Z,60.02
2017-03-09T01:42:44.191Z,58.99
2017-03-09T01:43:48.481Z,58.80
2017-03-09T01:44:53.940Z,58.69
2017-03-09T01:46:00.712Z,58.63
2017-03-09T01:46:39.188Z,58.55
2017-03-09T01:48:01.890Z,58.57
2017-03-09T01:48:50.260Z,58.89
2017-03-09T01:49:50.097Z,59.50
2017-03-09T01:50:45.201Z,59.68
2017-03-09T01:51:50.212Z,59.74
2017-03-09T01:52:55.439Z,59.81
2017-03-09T01:53:54.573Z,59.83
2017-03-09T01:54:44.567Z,59.88
2017-03-09T01:55:45.064Z,59.90
2017-03-09T01:56:49.813Z,59.88
2017-03-09T01:57:51.354Z,59.89
2017-03-09T01:58:49.047Z,59.92
2017-03-09T01:59:44.870Z,59.92
2017-03-09T02:00:44.631Z,59.93
2017-03-09T02:01:41.744Z,59.91
2017-03-09T02:02:50.560Z,59.88
2017-03-09T02:03:44.301Z,59.91
2017-03-09T02:05:03.828Z,59.91
2017-03-09T02:05:37.434Z,59.94
2017-03-09T02:06:58.291Z,59.91
2017-03-09T02:07:47.558Z,59.94
2017-03-09T02:08:42.355Z,60.19
2017-03-09T02:09:45.570Z,60.24
2017-03-09T02:10:59.147Z,60.17
2017-03-09T02:11:52.287Z,60.22
2017-03-09T02:12:44.000Z,60.16
2017-03-09T02:13:56.759Z,60.17
2017-03-09T02:14:52.719Z,60.13
2017-03-09T02:15:55.806Z,60.15
2017-03-09T02:16:37.732Z,60.16
2017-03-09T02:17:49.873Z,60.13
2017-03-09T02:18:49.604Z,60.14
2017-03-09T02:19:39.056Z,60.14
2017-03-09T02:20:44.515Z,60.19
2017-03-09T02:21:55.157Z,60.21
2017-03-09T02:22:44.760Z,60.20
2017-03-09T02:24:01.039Z,60.23
2017-03-09T02:24:56.052Z,60.22
2017-03-09T02:25:44.264Z,60.23
2017-03-09T02:26:43.811Z,60.21
2017-03-09T02:28:44.066Z,60.21
2017-03-09T02:29:44.436Z,60.25
2017-03-09T02:30:53.317Z,60.23
2017-03-09T02:31:39.316Z,60.27
2017-03-09T02:32:54.867Z,60.26
2017-03-09T02:33:44.503Z,60.27
2017-03-09T02:35:22.692Z,60.33
2017-03-09T02:35:47.759Z,60.26
2017-03-09T02:37:01.475Z,60.33
2017-03-09T02:37:44.640Z,60.36
2017-03-09T02:38:53.030Z,60.32
2017-03-09T02:39:44.649Z,60.34
2017-03-09T02:40:52.045Z,60.32
2017-03-09T02:41:33.212Z,60.29
2017-03-09T02:43:14.483Z,60.37
2017-03-09T02:44:09.522Z,60.27
2017-03-09T02:44:56.738Z,60.26
2017-03-09T02:45:54.991Z,60.26
2017-03-09T02:46:49.489Z,60.25
2017-03-09T02:47:56.695Z,60.26
2017-03-09T02:48:50.483Z,60.23
2017-03-09T02:49:50.366Z,60.25
2017-03-09T02:50:40.929Z,60.28
2017-03-09T02:51:54.623Z,60.23
2017-03-09T02:52:58.437Z,60.20
2017-03-09T02:54:02.889Z,60.24
2017-03-09T02:54:39.707Z,60.18
2017-03-09T02:55:53.465Z,60.17
2017-03-09T02:56:45.338Z,60.20
2017-03-09T02:58:03.956Z,60.18
2017-03-09T02:58:44.120Z,60.21
2017-03-09T02:59:39.152Z,60.20
2017-03-09T03:00:50.502Z,60.17
2017-03-09T03:01:40.101Z,60.15
2017-03-09T03:03:01.041Z,60.16
2017-03-09T03:03:39.861Z,60.12
2017-03-09T03:04:50.016Z,60.16
2017-03-09T03:05:50.949Z,60.11
2017-03-09T03:06:49.145Z,60.14
2017-03-09T03:07:44.178Z,60.12
2017-03-09T03:08:51.933Z,60.09
2017-03-09T03:09:45.155Z,60.10
2017-03-09T03:10:53.977Z,60.10
2017-03-09T03:11:44.225Z,60.11
2017-03-09T03:12:39.417Z,60.07
2017-03-09T03:13:43.841Z,60.11
2017-03-09T03:14:50.564Z,60.12
2017-03-09T03:15:49.741Z,60.10
2017-03-09T03:16:35.201Z,60.08
2017-03-09T03:17:53.841Z,60.06
2017-03-09T03:18:48.306Z,60.08
2017-03-09T03:19:50.172Z,60.09
2017-03-09T03:20:49.426Z,60.03
2017-03-09T03:21:57.210Z,60.08
2017-03-09T03:22:41.097Z,60.06
2017-03-09T03:23:55.281Z,60.07
2017-03-09T03:24:45.386Z,60.07
2017-03-09T03:26:04.475Z,60.09
2017-03-09T03:26:52.672Z,60.03
2017-03-09T03:27:40.075Z,60.07
2017-03-09T03:28:44.303Z,60.06
2017-03-09T03:29:44.405Z,60.05
2017-03-09T03:30:50.444Z,60.06
2017-03-09T03:31:51.055Z,60.06
2017-03-09T03:32:49.773Z,60.04
2017-03-09T03:33:50.863Z,60.05
2017-03-09T03:34:39.150Z,60.03
2017-03-09T03:35:44.278Z,60.05
2017-03-09T03:36:53.275Z,60.06
2017-03-09T03:37:45.695Z,60.09
2017-03-09T03:38:58.745Z,60.02
2017-03-09T03:39:45.321Z,60.06
2017-03-09T03:41:21.545Z,60.04
2017-03-09T03:41:49.177Z,60.05
2017-03-09T03:42:40.413Z,60.03
2017-03-09T03:43:44.610Z,60.01
2017-03-09T03:44:46.273Z,60.05
2017-03-09T03:45:54.187Z,60.05
2017-03-09T03:46:32.683Z,60.03
2017-03-09T03:47:39.142Z,60.05
2017-03-09T03:48:44.368Z,60.04
2017-03-09T03:49:50.237Z,60.03
2017-03-09T03:50:50.224Z,60.07
2017-03-09T03:52:06.355Z,60.03
2017-03-09T03:52:38.817Z,60.00
2017-03-09T03:54:01.569Z,60.05
2017-03-09T03:54:49.183Z,60.03
2017-03-09T03:56:08.543Z,60.00
2017-03-09T03:56:45.090Z,60.04
2017-03-09T03:57:40.245Z,60.05
2017-03-09T03:59:15.302Z,60.03
2017-03-09T04:00:20.815Z,60.06
2017-03-09T04:01:02.842Z,60.06
2017-03-09T04:01:51.463Z,60.05
2017-03-09T04:02:39.592Z,60.07
2017-03-09T04:03:42.798Z,60.02
2017-03-09T04:04:43.859Z,60.02
2017-03-09T04:05:44.352Z,60.06
2017-03-09T04:06:55.994Z,60.02
2017-03-09T04:07:39.137Z,60.05
2017-03-09T04:08:55.905Z,60.06
2017-03-09T04:10:15.571Z,60.05
2017-03-09T04:10:54.392Z,60.04
2017-03-09T04:11:43.606Z,60.06
2017-03-09T04:13:48.816Z,60.06
2017-03-09T04:14:45.672Z,60.08
2017-03-09T04:15:51.777Z,60.04
2017-03-09T04:16:50.760Z,60.02
2017-03-09T04:17:54.852Z,60.09
2017-03-09T04:18:49.448Z,60.05
2017-03-09T04:19:50.221Z,60.04
2017-03-09T04:20:44.987Z,60.06
2017-03-09T04:21:57.543Z,60.09
2017-03-09T04:22:50.921Z,60.06
2017-03-09T04:23:54.071Z,60.09
2017-03-09T04:24:45.050Z,60.06
2017-03-09T04:25:54.258Z,60.08
2017-03-09T04:26:55.661Z,60.07
2017-03-09T04:27:52.043Z,60.08
2017-03-09T04:28:44.650Z,60.06
2017-03-09T04:29:40.635Z,60.03
2017-03-09T04:30:39.995Z,60.02
2017-03-09T04:31:44.215Z,60.07
2017-03-09T04:33:06.865Z,60.06
2017-03-09T04:33:44.782Z,60.01
2017-03-09T04:34:43.211Z,59.86
2017-03-09T04:35:44.721Z,59.04
2017-03-09T04:37:16.052Z,59.13
2017-03-09T04:37:59.300Z,59.89
2017-03-09T04:39:02.345Z,60.06
2017-03-09T04:39:40.560Z,60.13
2017-03-09T04:40:54.858Z,60.15
2017-03-09T04:41:42.819Z,60.21
2017-03-09T04:42:59.804Z,60.18
2017-03-09T04:43:43.467Z,60.20
2017-03-09T04:44:40.366Z,60.24
2017-03-09T04:45:44.901Z,60.21
2017-03-09T04:46:44.396Z,60.22
2017-03-09T04:48:08.381Z,60.21
2017-03-09T04:48:51.553Z,60.24
2017-03-09T04:49:44.535Z,60.19
2017-03-09T04:50:44.835Z,59.30
2017-03-09T04:51:54.964Z,59.06
2017-03-09T04:52:43.161Z,58.95
2017-03-09T04:54:01.005Z,59.82
2017-03-09T04:54:33.369Z,60.03
2017-03-09T04:55:49.027Z,60.07
2017-03-09T04:56:39.622Z,60.11
2017-03-09T04:57:50.142Z,60.18
2017-03-09T04:58:45.019Z,60.21
2017-03-09T04:59:56.726Z,60.20
2017-03-09T05:00:39.069Z,60.16
2017-03-09T05:01:44.756Z,60.07
2017-03-09T05:02:44.100Z,59.30
2017-03-09T05:03:49.221Z,59.13
2017-03-09T05:04:49.872Z,59.01
2017-03-09T05:05:45.161Z,58.97
2017-03-09T05:06:44.525Z,58.94
2017-03-09T05:07:39.460Z,58.89
2017-03-09T05:08:39.252Z,58.93
2017-03-09T05:09:48.237Z,59.15
2017-03-09T05:10:54.195Z,59.85
2017-03-09T05:11:39.473Z,60.07
2017-03-09T05:12:53.218Z,60.16
2017-03-09T05:13:40.623Z,60.21
2017-03-09T05:14:57.347Z,60.18
2017-03-09T05:15:39.023Z,60.20
2017-03-09T05:16:44.759Z,60.24
2017-03-09T05:18:01.475Z,60.25
2017-03-09T05:18:44.677Z,60.23
2017-03-09T05:19:50.404Z,60.27
2017-03-09T05:20:43.642Z,60.29
2017-03-09T05:21:57.369Z,60.27
2017-03-09T05:23:02.562Z,60.27
2017-03-09T05:23:54.544Z,60.25
2017-03-09T05:24:34.623Z,60.23
2017-03-09T05:25:54.348Z,60.25
2017-03-09T05:26:54.709Z,60.25
2017-03-09T05:27:55.081Z,60.21
2017-03-09T05:28:44.940Z,60.20
2017-03-09T05:29:37.068Z,60.21
2017-03-09T05:30:49.273Z,60.19
2017-03-09T05:31:32.956Z,60.18
2017-03-09T05:32:55.650Z,60.19
2017-03-09T05:33:51.473Z,60.19
2017-03-09T05:34:47.321Z,60.29
2017-03-09T05:35:32.536Z,60.33
2017-03-09T05:36:59.214Z,60.36
2017-03-09T05:37:43.684Z,60.39
2017-03-09T05:39:00.345Z,60.67
2017-03-09T05:39:43.295Z,60.91
2017-03-09T05:41:33.792Z,60.86
2017-03-09T05:42:38.812Z,60.91
2017-03-09T05:43:48.999Z,61.07
2017-03-09T05:44:33.380Z,61.12
2017-03-09T05:45:42.211Z,61.17
2017-03-09T05:46:44.372Z,61.25
2017-03-09T05:47:43.470Z,61.34
2017-03-09T05:48:34.256Z,61.41
2017-03-09T05:49:48.788Z,61.63
2017-03-09T05:50:39.477Z,61.65
2017-03-09T05:51:48.515Z,61.69
2017-03-09T05:52:27.852Z,61.74
2017-03-09T05:53:27.613Z,61.57
2017-03-09T05:54:35.139Z,60.86
2017-03-09T05:55:27.897Z,60.63
2017-03-09T05:56:22.205Z,60.52
2017-03-09T05:57:31.138Z,60.54
2017-03-09T05:58:27.211Z,60.62
2017-03-09T05:59:33.770Z,60.80
2017-03-09T06:00:27.942Z,61.49
2017-03-09T06:01:29.446Z,61.85
2017-03-09T06:02:39.362Z,61.86
2017-03-09T06:03:28.746Z,61.88
2017-03-09T06:04:34.226Z,61.87
2017-03-09T06:05:27.185Z,62.04
2017-03-09T06:06:26.808Z,61.91
2017-03-09T06:07:32.380Z,62.06
2017-03-09T06:08:22.979Z,62.02
2017-03-09T06:09:27.433Z,62.03
2017-03-09T06:10:25.355Z,61.96
2017-03-09T06:11:28.974Z,62.03
2017-03-09T06:12:35.729Z,61.98
2017-03-09T06:13:28.170Z,62.06
2017-03-09T06:14:27.606Z,62.03
2017-03-09T06:15:32.777Z,62.13
2017-03-09T06:16:28.297Z,62.10
2017-03-09T06:17:33.606Z,62.16
2017-03-09T06:18:28.588Z,62.12
2017-03-09T06:19:34.348Z,62.15
2017-03-09T06:20:34.854Z,62.26
2017-03-09T06:21:40.023Z,62.10
2017-03-09T06:22:28.028Z,61.26
2017-03-09T06:23:35.603Z,61.26
2017-03-09T06:24:32.068Z,61.87
2017-03-09T06:25:38.487Z,62.06
2017-03-09T06:26:38.331Z,62.06
2017-03-09T06:27:38.851Z,62.18
2017-03-09T06:28:36.465Z,62.19
2017-03-09T06:29:36.423Z,62.24
2017-03-09T06:30:32.825Z,62.19
2017-03-09T06:31:37.398Z,62.31
2017-03-09T06:32:28.600Z,62.34
2017-03-09T06:33:29.278Z,62.34
2017-03-09T06:35:04.427Z,62.37
2017-03-09T06:35:48.627Z,62.36
2017-03-09T06:37:06.107Z,62.42
2017-03-09T06:37:49.824Z,62.37
2017-03-09T06:38:54.935Z,62.47
2017-03-09T06:39:45.898Z,62.38
2017-03-09T06:41:05.595Z,62.44
2017-03-09T06:41:50.123Z,62.42
2017-03-09T06:42:49.965Z,62.44
2017-03-09T06:43:49.753Z,62.40
2017-03-09T06:44:41.193Z,62.41
2017-03-09T06:46:04.453Z,62.42
2017-03-09T06:46:48.559Z,62.46
2017-03-09T06:47:49.966Z,62.43
2017-03-09T06:48:50.817Z,62.45
2017-03-09T06:50:00.543Z,62.52
2017-03-09T06:50:54.332Z,62.54
2017-03-09T06:51:55.166Z,62.57
2017-03-09T06:52:51.021Z,62.54
2017-03-09T06:54:02.523Z,62.66
2017-03-09T06:54:46.718Z,62.67
2017-03-09T06:56:01.214Z,62.56
2017-03-09T06:57:03.997Z,62.63
2017-03-09T06:58:32.175Z,62.67
2017-03-09T06:59:19.538Z,62.70
2017-03-09T06:59:53.052Z,62.73
2017-03-09T07:00:51.318Z,62.74
2017-03-09T07:01:51.579Z,62.89
2017-03-09T07:02:54.725Z,62.64
2017-03-09T07:03:51.027Z,61.88
2017-03-09T07:05:19.217Z,61.65
2017-03-09T07:05:52.637Z,61.83
2017-03-09T07:07:00.943Z,62.06
2017-03-09T07:07:45.035Z,63.58
2017-03-09T07:09:00.964Z,64.19
2017-03-09T07:10:18.191Z,64.92
2017-03-09T07:11:04.101Z,64.91
2017-03-09T07:11:58.188Z,65.28
2017-03-09T07:13:14.964Z,64.86
2017-03-09T07:13:54.121Z,64.62
2017-03-09T07:14:45.644Z,64.85
2017-03-09T07:16:05.608Z,64.85
2017-03-09T07:16:50.176Z,64.50
2017-03-09T07:18:24.427Z,64.70
2017-03-09T07:19:02.228Z,64.57
2017-03-09T07:20:01.442Z,64.50
2017-03-09T07:20:57.343Z,64.45
2017-03-09T07:22:27.457Z,64.61
2017-03-09T07:23:24.312Z,64.59
2017-03-09T07:24:16.375Z,64.12
2017-03-09T07:24:54.913Z,64.64
2017-03-09T07:25:45.708Z,63.99
2017-03-09T07:26:50.650Z,64.16
2017-03-09T07:27:51.278Z,64.10
2017-03-09T07:29:51.244Z,64.17
2017-03-09T07:31:23.254Z,64.34
2017-03-09T07:32:01.085Z,64.26
2017-03-09T07:32:50.371Z,64.13
2017-03-09T07:33:54.544Z,63.92
2017-03-09T07:35:01.119Z,63.78
2017-03-09T07:36:01.756Z,63.69
2017-03-09T07:37:06.184Z,63.60
2017-03-09T07:37:45.006Z,63.52
2017-03-09T07:39:21.501Z,63.27
2017-03-09T07:40:17.138Z,63.30
2017-03-09T07:40:51.299Z,63.08
2017-03-09T07:41:49.167Z,63.02
2017-03-09T07:42:50.704Z,63.00
2017-03-09T07:44:44.456Z,63.09
2017-03-09T07:46:00.693Z,62.94
2017-03-09T07:46:55.019Z,62.75
2017-03-09T07:48:15.072Z,62.84
2017-03-09T07:48:50.215Z,62.84
2017-03-09T07:50:04.372Z,63.00
2017-03-09T07:50:46.904Z,62.86
2017-03-09T07:52:10.162Z,62.85
2017-03-09T07:52:39.940Z,62.77
2017-03-09T07:53:44.466Z,62.74
2017-03-09T07:54:39.676Z,61.91
2017-03-09T07:55:44.971Z,61.76
2017-03-09T07:56:43.774Z,62.00
2017-03-09T07:57:51.341Z,62.60
2017-03-09T07:58:54.913Z,62.80
2017-03-09T07:59:44.543Z,62.82
2017-03-09T08:01:04.266Z,62.80
2017-03-09T08:02:06.553Z,62.76
2017-03-09T08:02:59.998Z,62.73
2017-03-09T08:03:39.401Z,62.77
2017-03-09T08:05:16.028Z,62.76
2017-03-09T08:06:03.881Z,63.26
2017-03-09T08:07:15.418Z,63.50
2017-03-09T08:07:45.583Z,63.16
2017-03-09T08:09:21.474Z,63.05
2017-03-09T08:09:49.322Z,63.22
2017-03-09T08:10:45.893Z,63.12
2017-03-09T08:11:53.147Z,63.25
2017-03-09T08:12:45.356Z,63.25
2017-03-09T08:13:55.949Z,63.27
2017-03-09T08:14:45.813Z,63.17
2017-03-09T08:16:00.924Z,63.22
2017-03-09T08:16:49.969Z,63.10
2017-03-09T08:17:55.128Z,63.05
2017-03-09T08:18:51.175Z,63.07
2017-03-09T08:20:01.118Z,63.04
2017-03-09T08:20:49.837Z,63.05
2017-03-09T08:21:40.965Z,63.10
2017-03-09T08:22:53.625Z,63.21
2017-03-09T08:24:15.438Z,63.24
2017-03-09T08:24:57.366Z,63.25
2017-03-09T08:25:51.873Z,63.27
2017-03-09T08:26:56.861Z,63.23
2017-03-09T08:27:51.200Z,63.27
2017-03-09T08:29:04.910Z,63.26
2017-03-09T08:29:43.686Z,63.25
2017-03-09T08:31:00.613Z,63.21
2017-03-09T08:31:44.764Z,63.16
2017-03-09T08:33:15.754Z,63.26
2017-03-09T08:34:04.659Z,63.25
2017-03-09T08:35:05.163Z,63.23
2017-03-09T08:36:15.731Z,63.18
2017-03-09T08:37:14.659Z,63.13
2017-03-09T08:39:49.757Z,63.14
2017-03-09T08:40:50.378Z,63.14
2017-03-09T08:42:15.455Z,63.14
2017-03-09T08:42:51.267Z,63.12
2017-03-09T08:43:55.645Z,63.02
2017-03-09T08:44:45.273Z,63.10
2017-03-09T08:46:05.923Z,63.09
2017-03-09T08:46:59.453Z,63.13
2017-03-09T08:48:08.458Z,63.14
2017-03-09T08:48:57.157Z,63.14
2017-03-09T08:50:00.547Z,63.13
2017-03-09T08:50:49.745Z,63.15
2017-03-09T08:52:01.410Z,63.16
2017-03-09T08:52:51.151Z,63.09
2017-03-09T08:53:50.210Z,63.12
2017-03-09T08:54:44.792Z,63.11
2017-03-09T08:55:45.909Z,63.14
2017-03-09T08:56:58.602Z,63.11
2017-03-09T08:58:17.704Z,63.11
2017-03-09T08:59:01.644Z,63.10
2017-03-09T08:59:50.137Z,63.05
2017-03-09T09:01:04.952Z,63.02
2017-03-09T09:01:59.989Z,63.02
2017-03-09T09:02:53.269Z,63.06
2017-03-09T09:04:04.937Z,63.07
2017-03-09T09:05:14.335Z,63.07
2017-03-09T09:06:03.780Z,63.02
2017-03-09T09:06:43.924Z,63.02
2017-03-09T09:07:53.310Z,63.01
2017-03-09T09:08:49.955Z,63.08
2017-03-09T09:10:00.654Z,63.12
2017-03-09T09:10:50.435Z,63.20
2017-03-09T09:11:56.077Z,63.09
2017-03-09T09:12:54.604Z,62.92
2017-03-09T09:13:55.284Z,63.07
2017-03-09T09:15:05.097Z,63.01
2017-03-09T09:16:19.855Z,63.05
2017-03-09T09:17:03.705Z,62.98
2017-03-09T09:18:25.636Z,62.98
2017-03-09T09:18:53.356Z,63.03
2017-03-09T09:20:00.025Z,63.01
2017-03-09T09:21:04.119Z,63.04
2017-03-09T09:21:53.702Z,62.95
2017-03-09T09:23:02.372Z,62.95
2017-03-09T09:24:05.241Z,62.87
2017-03-09T09:25:20.446Z,62.91
2017-03-09T09:25:59.402Z,62.85
2017-03-09T09:27:04.837Z,62.90
2017-03-09T09:27:50.263Z,62.88
2017-03-09T09:28:58.205Z,62.85
2017-03-09T09:29:43.330Z,62.78
2017-03-09T09:31:18.814Z,62.79
2017-03-09T09:32:07.425Z,62.91
2017-03-09T09:33:01.866Z,62.58
2017-03-09T09:34:14.298Z,58.34
2017-03-09T09:35:05.426Z,59.29
2017-03-09T09:35:48.538Z,56.99
2017-03-09T09:36:58.882Z,57.02
2017-03-09T09:37:48.963Z,56.16
2017-03-09T09:38:41.327Z,57.08
2017-03-09T09:40:04.564Z,56.40
2017-03-09T09:41:03.367Z,56.42
2017-03-09T09:42:33.479Z,57.09
2017-03-09T09:43:05.380Z,57.64
2017-03-09T09:44:25.905Z,57.88
2017-03-09T09:44:52.617Z,57.45
2017-03-09T09:46:04.496Z,57.77
2017-03-09T09:47:17.463Z,58.20
2017-03-09T09:48:01.413Z,58.31
2017-03-09T09:48:55.770Z,58.31
2017-03-09T09:49:45.702Z,58.45
2017-03-09T09:51:48.650Z,58.54
2017-03-09T09:52:58.496Z,58.59
2017-03-09T09:53:59.792Z,58.57
2017-03-09T09:55:01.600Z,58.61
2017-03-09T09:55:45.729Z,58.61
2017-03-09T09:56:55.593Z,58.59
2017-03-09T09:57:39.481Z,58.62
2017-03-09T09:59:37.733Z,58.62
2017-03-09T09:59:49.982Z,58.64
2017-03-09T10:00:59.959Z,57.91
2017-03-09T10:01:54.700Z,58.35
2017-03-09T10:02:45.789Z,58.48
2017-03-09T10:03:45.426Z,58.38
2017-03-09T10:04:46.091Z,57.54
2017-03-09T10:05:55.527Z,57.29
2017-03-09T10:07:04.514Z,57.26
2017-03-09T10:08:20.176Z,57.14
2017-03-09T10:09:04.672Z,57.05
2017-03-09T10:09:58.469Z,57.63
2017-03-09T10:10:53.843Z,57.11
2017-03-09T10:11:51.049Z,57.66
2017-03-09T10:13:05.353Z,58.09
2017-03-09T10:13:31.625Z,58.31
2017-03-09T10:14:51.277Z,58.74
2017-03-09T10:15:59.929Z,58.84
2017-03-09T10:16:35.059Z,58.82
2017-03-09T10:17:34.257Z,58.85
2017-03-09T10:18:42.842Z,58.85
2017-03-09T10:19:46.060Z,58.86
2017-03-09T10:20:53.905Z,58.90
2017-03-09T10:21:31.873Z,58.81
2017-03-09T10:22:50.430Z,58.84
2017-03-09T10:23:33.172Z,58.86
2017-03-09T10:24:55.792Z,58.87
2017-03-09T10:25:34.266Z,58.81
2017-03-09T10:26:50.146Z,58.95
2017-03-09T10:27:33.574Z,59.40
2017-03-09T10:28:34.554Z,59.16
2017-03-09T10:29:36.693Z,59.16
2017-03-09T10:30:38.580Z,59.07
2017-03-09T10:31:43.051Z,59.09
2017-03-09T10:32:45.380Z,59.04
2017-03-09T10:33:44.726Z,59.08
2017-03-09T10:34:39.964Z,59.00
2017-03-09T10:35:42.101Z,59.01
2017-03-09T10:36:38.642Z,59.03
2017-03-09T10:37:57.893Z,59.01
2017-03-09T10:38:39.402Z,59.02
2017-03-09T10:39:40.978Z,58.98
2017-03-09T10:40:43.911Z,59.03
2017-03-09T10:41:58.627Z,59.03
2017-03-09T10:42:51.827Z,59.02
2017-03-09T10:43:38.753Z,59.00
2017-03-09T10:44:42.780Z,59.03
2017-03-09T10:45:45.872Z,58.97
2017-03-09T10:46:50.339Z,58.92
2017-03-09T10:47:38.831Z,58.93
2017-03-09T10:49:06.850Z,58.97
2017-03-09T10:49:39.991Z,58.97
2017-03-09T10:50:53.099Z,58.98
2017-03-09T10:51:38.827Z,59.03
2017-03-09T10:52:51.351Z,59.05
2017-03-09T10:53:43.573Z,59.15
2017-03-09T10:54:59.754Z,59.18
2017-03-09T10:55:38.486Z,59.16
2017-03-09T10:56:44.583Z,59.11
2017-03-09T10:57:47.522Z,59.11
2017-03-09T10:58:41.227Z,59.08
2017-03-09T10:59:58.653Z,59.08
2017-03-09T11:00:39.577Z,59.06
2017-03-09T11:01:58.382Z,59.02
2017-03-09T11:02:44.584Z,59.08
2017-03-09T11:03:51.656Z,59.19
2017-03-09T11:04:40.133Z,59.28
2017-03-09T11:05:52.252Z,59.27
2017-03-09T11:06:38.503Z,59.17
2017-03-09T11:07:39.304Z,59.14
2017-03-09T11:08:53.579Z,59.14
2017-03-09T11:09:40.075Z,59.10
2017-03-09T11:10:49.639Z,59.32
2017-03-09T11:12:09.506Z,59.27
2017-03-09T11:13:42.029Z,59.19
2017-03-09T11:13:57.068Z,59.23
2017-03-09T11:15:03.250Z,59.20
2017-03-09T11:15:43.957Z,59.24
2017-03-09T11:16:42.370Z,59.24
2017-03-09T11:17:44.736Z,59.18
2017-03-09T11:19:43.599Z,59.14
2017-03-09T11:20:35.024Z,59.13
2017-03-09T11:21:52.820Z,59.12
2017-03-09T11:22:41.988Z,59.14
2017-03-09T11:23:52.326Z,59.18
2017-03-09T11:25:09.161Z,59.20
2017-03-09T11:25:55.210Z,59.21
2017-03-09T11:27:02.820Z,59.17
2017-03-09T11:27:55.590Z,59.18
2017-03-09T11:28:43.603Z,59.15
2017-03-09T11:30:05.237Z,59.16
2017-03-09T11:30:57.459Z,59.14
2017-03-09T11:32:55.051Z,59.16
2017-03-09T11:33:00.649Z,59.12
2017-03-09T11:33:59.764Z,59.14
2017-03-09T11:35:18.821Z,59.06
2017-03-09T11:36:44.746Z,59.07
2017-03-09T11:37:37.488Z,59.06
2017-03-09T11:39:00.576Z,58.95
2017-03-09T11:39:43.145Z,58.53
2017-03-09T11:40:50.617Z,58.90
2017-03-09T11:41:51.267Z,58.91
2017-03-09T11:43:23.164Z,58.96
2017-03-09T11:43:58.106Z,59.07
2017-03-09T11:44:59.468Z,59.13
2017-03-09T11:46:15.659Z,59.29
2017-03-09T11:47:04.561Z,59.35
2017-03-09T11:47:49.843Z,59.40
2017-03-09T11:49:09.408Z,59.45
2017-03-09T11:49:48.373Z,59.50
2017-03-09T11:50:50.405Z,59.56
2017-03-09T11:51:52.614Z,59.62
2017-03-09T11:52:54.186Z,59.61
2017-03-09T11:54:04.754Z,59.64
2017-03-09T11:54:58.318Z,59.67
2017-03-09T11:56:04.121Z,59.67
2017-03-09T11:56:53.289Z,59.70
2017-03-09T11:58:01.083Z,59.76
2017-03-09T11:59:04.968Z,59.87
2017-03-09T12:00:04.345Z,59.81
2017-03-09T12:01:01.280Z,59.77
2017-03-09T12:02:03.667Z,59.62
2017-03-09T12:03:15.658Z,59.72
2017-03-09T12:03:49.720Z,59.74
2017-03-09T12:04:51.246Z,59.74
2017-03-09T12:05:57.015Z,59.80
2017-03-09T12:06:51.737Z,59.86
2017-03-09T12:08:59.267Z,59.87
2017-03-09T12:09:42.495Z,59.82
2017-03-09T12:10:05.118Z,59.76
2017-03-09T12:11:18.521Z,59.71
2017-03-09T12:11:47.491Z,59.70
2017-03-09T12:13:17.719Z,59.73
2017-03-09T12:13:45.918Z,59.70
2017-03-09T12:14:55.146Z,59.71
2017-03-09T12:15:57.565Z,59.70
2017-03-09T12:17:21.785Z,59.72
2017-03-09T12:17:59.543Z,59.74
2017-03-09T12:18:46.819Z,59.73
2017-03-09T12:19:49.476Z,59.74
2017-03-09T12:21:15.337Z,59.78
2017-03-09T12:22:15.087Z,59.79
2017-03-09T12:22:54.503Z,59.78
2017-03-09T12:25:04.861Z,59.81
2017-03-09T12:25:54.349Z,59.85
2017-03-09T12:26:58.026Z,59.82
2017-03-09T12:28:04.881Z,59.80
2017-03-09T12:28:54.336Z,59.79
2017-03-09T12:29:44.953Z,59.81
2017-03-09T12:30:58.786Z,59.83
2017-03-09T12:31:42.993Z,59.82
2017-03-09T12:32:50.023Z,59.84
2017-03-09T12:33:45.171Z,59.88
2017-03-09T12:35:03.024Z,59.89
2017-03-09T12:35:51.528Z,59.87
2017-03-09T12:37:08.352Z,59.86
2017-03-09T12:37:53.876Z,59.92
2017-03-09T12:39:14.738Z,59.90
2017-03-09T12:39:43.249Z,59.93
2017-03-09T12:40:55.659Z,59.94
2017-03-09T12:41:50.769Z,59.97
2017-03-09T12:43:20.044Z,59.97
2017-03-09T12:43:59.040Z,60.01
2017-03-09T12:44:53.414Z,60.04
2017-03-09T12:46:15.761Z,60.05
2017-03-09T12:46:50.224Z,60.05
2017-03-09T12:47:55.777Z,60.06
2017-03-09T12:48:45.436Z,60.07
2017-03-09T12:49:59.647Z,59.12
2017-03-09T12:50:55.160Z,59.07
2017-03-09T12:52:04.127Z,59.79
2017-03-09T12:52:57.168Z,59.96
2017-03-09T12:53:58.931Z,60.09
2017-03-09T12:54:44.527Z,60.50
2017-03-09T12:56:16.505Z,60.56
2017-03-09T12:57:15.439Z,60.58
2017-03-09T12:58:22.806Z,60.58
2017-03-09T12:59:40.640Z,60.60
2017-03-09T13:00:55.250Z,60.60
2017-03-09T13:01:55.077Z,60.67
2017-03-09T13:03:00.186Z,60.65
2017-03-09T13:03:53.884Z,59.72
2017-03-09T13:05:16.496Z,59.73
2017-03-09T13:05:59.344Z,59.53
2017-03-09T13:06:58.463Z,59.30